Time;durP1;ratioP1;P1;durP2;ratioP2;P2;SDS_P1;SDS_P2;PMS_P1;PMS_P2;Temp;Humidity;BMP_temperature;BMP_pressure;BME280_temperature;BME280_humidity;BME280_pressure;Samples;Min_cycle;Max_cycle;Signal;HPM_P1;HPM_P2
2022/09/05 03:00:52;;;;;;;0.70;0.70;;;19.20;76.20;;;;;;5973312;23;20493;-74
2022/09/05 03:03:28;;;;;;;0.80;0.70;;;19.20;76.40;;;;;;4919360;29;20574;-75
2022/09/05 03:06:00;;;;;;;0.80;0.70;;;19.20;76.20;;;;;;4919592;29;20437;-75
2022/09/05 03:08:56;;;;;;;0.70;0.60;;;19.20;76.10;;;;;;4919275;29;20980;-75
2022/09/05 03:11:59;;;;;;;0.80;0.70;;;19.10;76.00;;;;;;4918376;29;20465;-75
2022/09/05 03:14:55;;;;;;;0.70;0.57;;;19.10;75.90;;;;;;4919326;29;20460;-75
2022/09/05 03:17:53;;;;;;;0.70;0.60;;;19.00;75.90;;;;;;4920838;29;20484;-74
2022/09/05 03:21:00;;;;;;;0.70;0.60;;;19.00;76.30;;;;;;4919322;29;20481;-75
2022/09/05 03:24:00;;;;;;;0.70;0.60;;;18.90;76.30;;;;;;4919249;29;20449;-74
2022/09/05 03:26:51;;;;;;;2.40;0.60;;;18.90;76.40;;;;;;4906649;29;20924;-75
2022/09/05 03:29:47;;;;;;;0.70;0.70;;;18.90;76.40;;;;;;4919100;29;20476;-75
2022/09/05 03:32:47;;;;;;;0.70;0.60;;;18.90;76.30;;;;;;4919076;29;20484;-74
2022/09/05 03:35:51;;;;;;;0.77;0.60;;;18.80;76.50;;;;;;4919044;29;20488;-74
2022/09/05 03:38:50;;;;;;;0.70;0.60;;;18.80;76.60;;;;;;4918915;29;20452;-74
2022/09/05 03:41:31;;;;;;;0.70;0.60;;;18.80;76.70;;;;;;4918860;29;20460;-75
2022/09/05 03:44:14;;;;;;;0.70;0.50;;;18.70;77.10;;;;;;4918872;29;20429;-75
2022/09/05 03:47:19;;;;;;;0.70;0.60;;;18.70;77.30;;;;;;4918843;29;20436;-75
2022/09/05 03:50:16;;;;;;;0.77;0.63;;;18.70;77.40;;;;;;4889697;29;20544;-75
2022/09/05 03:53:01;;;;;;;0.70;0.60;;;18.70;77.50;;;;;;4918668;29;20481;-75
2022/09/05 03:55:42;;;;;;;0.70;0.60;;;18.70;77.50;;;;;;4918686;29;20444;-75
2022/09/05 03:59:03;;;;;;;0.70;0.60;;;18.70;77.60;;;;;;4918619;29;20492;-75
2022/09/05 04:01:34;;;;;;;0.80;0.60;;;18.70;77.50;;;;;;4864898;29;20487;-75
2022/09/05 04:04:05;;;;;;;0.80;0.67;;;18.60;77.70;;;;;;4878671;29;20431;-75
2022/09/05 04:06:36;;;;;;;0.70;0.60;;;18.60;77.80;;;;;;4898369;29;20445;-75
2022/09/05 04:09:09;;;;;;;0.80;0.70;;;18.60;77.80;;;;;;4918162;29;20429;-75
2022/09/05 04:11:44;;;;;;;0.70;0.70;;;18.70;77.70;;;;;;4918323;29;20548;-75
2022/09/05 04:14:19;;;;;;;0.80;0.70;;;18.70;77.30;;;;;;4918335;29;20433;-74
2022/09/05 04:16:50;;;;;;;0.70;0.60;;;18.70;76.60;;;;;;4918308;29;20492;-74
2022/09/05 04:19:26;;;;;;;0.73;0.67;;;18.60;76.10;;;;;;4918243;29;20520;-75
2022/09/05 04:22:00;;;;;;;1.50;0.73;;;18.60;76.10;;;;;;4917931;29;20468;-75
2022/09/05 04:24:31;;;;;;;0.70;0.60;;;18.60;75.80;;;;;;4918241;29;20444;-75
2022/09/05 04:27:14;;;;;;;0.70;0.63;;;18.60;75.70;;;;;;4917810;29;20861;-75
2022/09/05 04:29:54;;;;;;;0.70;0.60;;;18.50;75.70;;;;;;4917956;29;20548;-75
2022/09/05 04:32:37;;;;;;;0.70;0.70;;;18.50;75.80;;;;;;4917940;29;20527;-74
2022/09/05 04:35:19;;;;;;;0.70;0.70;;;18.50;75.90;;;;;;4918021;29;20448;-75
2022/09/05 04:37:54;;;;;;;0.90;0.80;;;18.40;76.20;;;;;;4917899;29;20528;-75
2022/09/05 04:40:42;;;;;;;0.70;0.60;;;18.40;76.50;;;;;;4917592;29;20439;-74
2022/09/05 04:43:19;;;;;;;0.70;0.53;;;18.40;76.70;;;;;;4917823;29;20501;-75
2022/09/05 04:45:52;;;;;;;0.70;0.60;;;18.40;76.80;;;;;;4917794;29;20433;-75
2022/09/05 04:48:22;;;;;;;0.73;0.63;;;18.40;77.00;;;;;;4917750;29;20487;-75
2022/09/05 04:51:05;;;;;;;0.87;0.60;;;18.40;77.00;;;;;;4917584;29;20496;-74
2022/09/05 04:54:11;;;;;;;0.70;0.63;;;18.40;77.30;;;;;;4917717;29;20441;-74
2022/09/05 04:56:42;;;;;;;0.70;0.60;;;18.40;77.50;;;;;;4917659;29;20437;-75
2022/09/05 04:59:16;;;;;;;0.77;0.60;;;18.40;77.20;;;;;;4917627;29;20455;-74
2022/09/05 05:01:47;;;;;;;0.70;0.60;;;18.40;77.00;;;;;;4917304;29;20481;-74
2022/09/05 05:04:19;;;;;;;0.80;0.60;;;18.40;76.90;;;;;;4917608;29;20434;-74
2022/09/05 05:06:49;;;;;;;0.80;0.70;;;18.50;76.70;;;;;;4917267;29;20936;-74
2022/09/05 05:09:21;;;;;;;0.70;0.70;;;18.50;76.40;;;;;;4917533;29;20437;-75
2022/09/05 05:11:53;;;;;;;0.90;0.70;;;18.60;76.40;;;;;;4917324;29;20524;-75
2022/09/05 05:14:26;;;;;;;0.80;0.67;;;18.60;76.20;;;;;;4917406;29;20473;-74
2022/09/05 05:16:58;;;;;;;0.70;0.60;;;18.70;76.10;;;;;;4917971;29;20497;-75
2022/09/05 05:19:30;;;;;;;0.70;0.60;;;18.80;76.00;;;;;;4917060;29;20848;-74
2022/09/05 05:21:59;;;;;;;0.70;0.60;;;18.90;75.90;;;;;;4917271;29;20477;-75
2022/09/05 05:24:28;;;;;;;0.70;0.60;;;19.00;75.60;;;;;;4917294;29;20504;-74
2022/09/05 05:27:04;;;;;;;0.70;0.60;;;19.10;75.30;;;;;;4917271;29;20452;-75
2022/09/05 05:29:42;;;;;;;0.70;0.60;;;19.20;75.00;;;;;;4917262;29;20436;-74
2022/09/05 05:32:16;;;;;;;0.70;0.60;;;19.30;74.90;;;;;;4916889;29;20468;-75
2022/09/05 05:34:46;;;;;;;0.73;0.67;;;19.30;74.60;;;;;;4919482;29;20496;-74
2022/09/05 05:37:19;;;;;;;0.70;0.67;;;19.40;74.80;;;;;;4921314;29;20452;-74
2022/09/05 05:39:49;;;;;;;0.70;0.60;;;19.50;74.70;;;;;;4921130;29;20437;-75
2022/09/05 05:42:19;;;;;;;0.70;0.60;;;19.70;75.10;;;;;;4920982;29;20528;-75
2022/09/05 05:44:51;;;;;;;0.70;0.60;;;19.90;75.00;;;;;;4921926;29;20433;-79
2022/09/05 05:47:20;;;;;;;0.80;0.80;;;20.10;74.70;;;;;;4927482;29;20417;-77
2022/09/05 05:49:59;;;;;;;0.70;0.57;;;20.30;74.30;;;;;;4922833;29;20456;-79
2022/09/05 05:52:49;;;;;;;0.70;0.60;;;20.50;73.10;;;;;;4923383;29;20472;-79
2022/09/05 05:55:40;;;;;;;0.70;0.60;;;20.70;72.20;;;;;;4923063;29;20429;-78
2022/09/05 05:58:30;;;;;;;0.70;0.60;;;21.20;71.90;;;;;;4922252;29;20489;-77
2022/09/05 06:01:27;;;;;;;0.70;0.60;;;22.20;69.60;;;;;;4921315;29;20552;-76
2022/09/05 06:04:38;;;;;;;0.90;0.67;;;23.20;66.40;;;;;;4923130;29;20433;-78
2022/09/05 06:07:10;;;;;;;0.77;0.67;;;24.60;64.00;;;;;;4921790;29;20452;-78
2022/09/05 06:10:13;;;;;;;0.80;0.60;;;25.90;60.80;;;;;;4920706;29;20441;-77
2022/09/05 06:13:22;;;;;;;1.07;0.60;;;26.70;58.50;;;;;;4890332;29;20566;-78
2022/09/05 06:16:41;;;;;;;0.80;0.60;;;26.90;57.70;;;;;;4921009;29;20444;-78
2022/09/05 06:19:48;;;;;;;0.70;0.60;;;26.80;57.20;;;;;;4922765;29;20915;-79
2022/09/05 06:22:56;;;;;;;0.70;0.60;;;27.10;57.00;;;;;;4920742;29;20618;-78
2022/09/05 06:26:00;;;;;;;0.70;0.60;;;27.80;55.60;;;;;;4920688;29;20798;-79
2022/09/05 06:28:34;;;;;;;0.70;0.50;;;28.20;54.40;;;;;;4918545;29;20460;-78
2022/09/05 06:31:24;;;;;;;0.80;0.60;;;28.60;54.30;;;;;;4920030;29;21004;-79
2022/09/05 06:34:09;;;;;;;0.70;0.60;;;29.50;53.00;;;;;;4920278;29;20909;-79
2022/09/05 06:36:50;;;;;;;0.70;0.60;;;30.50;50.90;;;;;;4921037;29;20497;-79
2022/09/05 06:39:25;;;;;;;0.70;0.60;;;30.80;49.70;;;;;;4920853;29;20433;-79
2022/09/05 06:42:10;;;;;;;0.80;0.67;;;30.70;49.60;;;;;;4920979;29;20473;-79
2022/09/05 06:44:52;;;;;;;0.70;0.60;;;31.00;49.30;;;;;;4921266;29;20528;-79
2022/09/05 06:47:20;;;;;;;0.70;0.53;;;32.00;48.40;;;;;;4920156;29;20504;-78
2022/09/05 06:50:04;;;;;;;0.70;0.50;;;32.90;46.30;;;;;;4919582;29;20968;-78
2022/09/05 06:52:55;;;;;;;0.80;0.60;;;33.70;45.20;;;;;;4920150;29;20464;-78
2022/09/05 06:55:39;;;;;;;0.70;0.60;;;34.10;44.10;;;;;;4922644;29;20433;-79
2022/09/05 06:58:41;;;;;;;0.70;0.50;;;34.00;44.00;;;;;;4919611;29;20920;-78
2022/09/05 07:01:10;;;;;;;0.70;0.53;;;33.50;44.70;;;;;;4919493;29;20480;-78
2022/09/05 07:03:57;;;;;;;0.70;0.60;;;32.60;46.50;;;;;;4919712;29;20493;-78
2022/09/05 07:06:34;;;;;;;1.43;0.60;;;31.90;46.60;;;;;;4919689;29;20465;-78
2022/09/05 07:09:14;;;;;;;0.70;0.60;;;30.50;48.90;;;;;;4919611;29;20436;-78
2022/09/05 07:11:50;;;;;;;0.93;0.70;;;29.20;52.70;;;;;;4919011;29;20520;-78
2022/09/05 07:14:21;;;;;;;0.80;0.60;;;28.80;54.50;;;;;;4921243;29;20437;-78
2022/09/05 07:16:53;;;;;;;0.70;0.60;;;28.50;55.10;;;;;;4919687;29;20449;-78
2022/09/05 07:19:26;;;;;;;0.70;0.60;;;28.10;55.80;;;;;;4919269;29;20444;-78
2022/09/05 07:22:15;;;;;;;1.37;0.80;;;27.70;56.40;;;;;;4919050;29;20536;-78
2022/09/05 07:24:46;;;;;;;0.80;0.70;;;27.30;57.00;;;;;;4919824;29;20444;-78
2022/09/05 07:27:29;;;;;;;0.70;0.63;;;26.70;57.40;;;;;;4919298;29;20452;-79
2022/09/05 07:29:59;;;;;;;0.70;0.60;;;26.30;58.30;;;;;;4919309;29;20529;-79
2022/09/05 07:32:27;;;;;;;0.80;0.60;;;26.20;58.30;;;;;;4921617;29;20488;-78
2022/09/05 07:34:54;;;;;;;0.80;0.70;;;26.00;58.80;;;;;;4922750;29;20460;-79
2022/09/05 07:37:26;;;;;;;0.90;0.67;;;25.60;60.20;;;;;;4922740;29;20449;-79
2022/09/05 07:39:57;;;;;;;0.90;0.70;;;25.70;59.90;;;;;;4922366;29;20445;-79
2022/09/05 07:42:27;;;;;;;0.70;0.60;;;25.60;62.20;;;;;;4920811;29;20473;-79
2022/09/05 07:44:57;;;;;;;0.70;0.60;;;25.70;62.80;;;;;;4921808;29;20536;-78
2022/09/05 07:47:28;;;;;;;0.70;0.60;;;25.60;62.20;;;;;;4920637;29;20453;-78
2022/09/05 07:49:58;;;;;;;0.77;0.70;;;25.60;61.20;;;;;;4919465;29;20492;-79
2022/09/05 07:52:27;;;;;;;0.70;0.70;;;25.70;61.90;;;;;;4919248;29;20489;-78
2022/09/05 07:54:57;;;;;;;0.83;0.70;;;25.70;61.30;;;;;;4919060;29;20449;-79
2022/09/05 07:57:30;;;;;;;0.70;0.60;;;25.40;61.40;;;;;;4918090;29;20910;-79
2022/09/05 08:00:03;;;;;;;0.70;0.60;;;25.40;61.10;;;;;;4919258;29;20473;-79
2022/09/05 08:02:30;;;;;;;0.70;0.60;;;25.40;61.30;;;;;;4918704;29;20507;-79
2022/09/05 08:05:03;;;;;;;0.70;0.60;;;25.50;60.60;;;;;;4919555;29;20525;-78
2022/09/05 08:07:36;;;;;;;0.80;0.70;;;25.70;60.20;;;;;;4918952;29;20505;-78
2022/09/05 08:10:09;;;;;;;0.70;0.60;;;25.80;59.80;;;;;;4918754;29;20901;-79
2022/09/05 08:12:39;;;;;;;0.70;0.60;;;25.90;59.50;;;;;;4919200;29;20493;-78
2022/09/05 08:15:08;;;;;;;0.70;0.60;;;25.80;59.60;;;;;;4919099;29;20453;-78
2022/09/05 08:17:43;;;;;;;0.80;0.70;;;25.70;59.90;;;;;;4919922;29;20449;-78
2022/09/05 08:20:24;;;;;;;0.70;0.60;;;25.90;58.80;;;;;;4919407;29;20440;-78
2022/09/05 08:23:02;;;;;;;0.70;0.60;;;25.70;59.00;;;;;;4919184;29;20441;-79
2022/09/05 08:25:32;;;;;;;0.90;0.60;;;25.90;59.90;;;;;;4919767;29;20448;-79
2022/09/05 08:28:06;;;;;;;0.70;0.60;;;26.00;59.60;;;;;;4918953;29;20453;-78
2022/09/05 08:30:42;;;;;;;0.70;0.60;;;26.10;60.20;;;;;;4918405;29;20895;-79
2022/09/05 08:33:13;;;;;;;0.70;0.63;;;26.00;60.10;;;;;;4919572;29;20828;-79
2022/09/05 08:35:43;;;;;;;0.70;0.50;;;26.00;61.00;;;;;;4919465;29;20508;-79
2022/09/05 08:38:14;;;;;;;0.70;0.60;;;26.10;60.10;;;;;;4919953;29;20532;-79
2022/09/05 08:40:49;;;;;;;0.70;0.60;;;26.00;61.40;;;;;;4919637;29;20429;-79
2022/09/05 08:43:29;;;;;;;0.80;0.60;;;26.10;60.60;;;;;;4920252;29;20496;-79
2022/09/05 08:46:00;;;;;;;0.70;0.57;;;26.20;60.50;;;;;;4919650;29;20497;-80
2022/09/05 08:48:38;;;;;;;0.80;0.67;;;26.10;59.40;;;;;;4922232;29;20439;-79
2022/09/05 08:51:15;;;;;;;0.70;0.50;;;26.00;60.60;;;;;;4922330;29;20492;-79
2022/09/05 08:53:57;;;;;;;0.70;0.60;;;25.90;60.10;;;;;;4919168;29;20433;-79
2022/09/05 08:56:30;;;;;;;0.70;0.60;;;26.10;61.10;;;;;;4919736;29;20984;-79
2022/09/05 08:59:02;;;;;;;0.70;0.60;;;26.20;59.80;;;;;;4917800;29;20497;-79
2022/09/05 09:01:33;;;;;;;0.80;0.60;;;26.00;60.60;;;;;;4917284;29;20488;-79
2022/09/05 09:04:20;;;;;;;0.70;0.60;;;26.20;59.60;;;;;;4919681;29;20437;-80
2022/09/05 09:07:02;;;;;;;0.80;0.70;;;26.00;59.80;;;;;;4920285;29;20913;-78
2022/09/05 09:09:40;;;;;;;0.70;0.60;;;25.70;61.30;;;;;;4919098;29;20430;-76
2022/09/05 09:12:14;;;;;;;0.70;0.60;;;25.60;61.90;;;;;;4918411;29;20496;-79
2022/09/05 09:14:54;;;;;;;0.70;0.60;;;25.70;60.20;;;;;;4917815;29;20444;-79
2022/09/05 09:17:32;;;;;;;0.70;0.60;;;25.70;59.70;;;;;;4918817;29;20437;-79
2022/09/05 09:20:14;;;;;;;0.70;0.60;;;25.60;60.90;;;;;;4918283;29;20886;-79
2022/09/05 09:22:51;;;;;;;0.70;0.60;;;25.70;61.30;;;;;;4917339;29;20475;-78
2022/09/05 09:25:23;;;;;;;0.70;0.60;;;25.60;60.40;;;;;;4918354;29;20443;-78
2022/09/05 09:28:06;;;;;;;0.70;0.60;;;25.70;60.70;;;;;;4917204;29;20437;-78
2022/09/05 09:30:35;;;;;;;0.70;0.60;;;25.80;60.90;;;;;;4917299;29;20433;-79
2022/09/05 09:33:04;;;;;;;0.70;0.60;;;26.00;60.30;;;;;;4917762;29;20544;-81
2022/09/05 09:35:44;;;;;;;0.80;0.60;;;26.10;60.00;;;;;;4917957;29;20456;-78
2022/09/05 09:38:37;;;;;;;0.80;0.60;;;26.20;59.90;;;;;;4917177;29;20439;-79
2022/09/05 09:41:42;;;;;;;0.70;0.60;;;26.50;59.00;;;;;;4916997;29;20528;-78
2022/09/05 09:44:56;;;;;;;0.70;0.60;;;26.70;57.30;;;;;;4917217;29;20915;-78
2022/09/05 09:47:39;;;;;;;0.70;0.60;;;26.80;57.60;;;;;;4919540;29;20536;-80
2022/09/05 09:50:25;;;;;;;0.70;0.60;;;26.60;57.30;;;;;;4918889;29;20441;-79
2022/09/05 09:53:11;;;;;;;0.70;0.60;;;26.40;57.70;;;;;;4916932;29;20988;-78
2022/09/05 09:56:33;;;;;;;0.97;0.60;;;26.40;58.80;;;;;;4918103;29;20528;-79
2022/09/05 09:59:17;;;;;;;0.70;0.50;;;26.60;58.10;;;;;;4918306;29;20476;-80
2022/09/05 10:01:53;;;;;;;0.70;0.60;;;26.70;58.10;;;;;;4920066;29;20540;-78
2022/09/05 10:04:49;;;;;;;0.80;0.60;;;26.70;57.40;;;;;;4920141;29;20527;-80
2022/09/05 10:07:48;;;;;;;1.03;0.60;;;26.70;56.80;;;;;;4922519;29;20442;-80
2022/09/05 10:10:44;;;;;;;0.80;0.60;;;26.70;56.70;;;;;;4922378;29;20463;-80
2022/09/05 10:13:49;;;;;;;0.80;0.70;;;26.80;54.50;;;;;;4921821;29;20469;-80
2022/09/05 10:17:02;;;;;;;0.90;0.60;;;27.10;54.90;;;;;;4923903;29;20441;-80
2022/09/05 10:20:00;;;;;;;1.03;0.60;;;27.40;53.60;;;;;;4923458;29;20451;-81
2022/09/05 10:22:40;;;;;;;0.70;0.57;;;27.80;53.70;;;;;;4901672;29;20473;-81
2022/09/05 10:25:36;;;;;;;0.70;0.60;;;27.90;50.60;;;;;;4927332;29;20433;-81
2022/09/05 10:28:05;;;;;;;0.70;0.60;;;27.80;52.30;;;;;;4926389;29;20425;-81
2022/09/05 10:30:45;;;;;;;0.70;0.50;;;28.10;52.40;;;;;;4927258;29;20441;-81
2022/09/05 10:33:35;;;;;;;0.70;0.50;;;28.30;51.50;;;;;;4927393;29;20508;-81
2022/09/05 10:36:23;;;;;;;1.00;0.60;;;28.20;51.30;;;;;;4923411;29;20445;-82
2022/09/05 10:38:59;;;;;;;0.70;0.57;;;28.40;51.30;;;;;;4922667;29;20464;-79
2022/09/05 10:41:48;;;;;;;0.70;0.60;;;28.50;49.10;;;;;;4920963;29;20476;-81
2022/09/05 10:44:23;;;;;;;0.70;0.60;;;28.40;50.50;;;;;;4925007;29;20482;-79
2022/09/05 10:47:03;;;;;;;0.70;0.60;;;28.50;50.20;;;;;;4922372;29;20468;-81
2022/09/05 10:49:34;;;;;;;0.70;0.57;;;28.40;51.00;;;;;;4922725;29;20437;-81
2022/09/05 10:52:06;;;;;;;0.70;0.60;;;28.40;51.40;;;;;;4923478;29;20503;-79
2022/09/05 10:54:53;;;;;;;0.80;0.60;;;28.50;49.70;;;;;;4921768;29;20441;-79
2022/09/05 10:57:37;;;;;;;0.70;0.60;;;28.60;50.80;;;;;;4921608;29;20440;-78
2022/09/05 11:00:23;;;;;;;0.70;0.57;;;28.50;49.50;;;;;;4920484;29;20473;-77
2022/09/05 11:02:56;;;;;;;0.70;0.60;;;28.60;50.10;;;;;;4920210;29;20519;-78
2022/09/05 11:05:25;;;;;;;0.70;0.50;;;28.50;50.70;;;;;;4920659;29;20442;-79
2022/09/05 11:08:01;;;;;;;0.70;0.50;;;28.70;49.70;;;;;;4920576;29;20642;-78
2022/09/05 11:10:34;;;;;;;0.90;0.60;;;28.80;49.30;;;;;;4920099;29;20811;-79
2022/09/05 11:13:14;;;;;;;0.70;0.60;;;28.90;49.70;;;;;;4921482;29;20536;-78
2022/09/05 11:15:58;;;;;;;0.70;0.60;;;29.10;50.30;;;;;;4921605;29;20445;-79
2022/09/05 11:18:45;;;;;;;0.70;0.60;;;29.60;50.10;;;;;;4922614;29;20456;-79
2022/09/05 11:21:21;;;;;;;0.70;0.60;;;29.90;47.70;;;;;;4921512;29;20477;-78
2022/09/05 11:23:54;;;;;;;0.90;0.67;;;30.00;47.60;;;;;;4921155;29;20433;-76
2022/09/05 11:26:32;;;;;;;0.70;0.60;;;29.60;47.90;;;;;;4919264;29;20441;-77
2022/09/05 11:29:05;;;;;;;0.70;0.50;;;29.50;48.30;;;;;;4919289;29;20445;-77
2022/09/05 11:31:45;;;;;;;0.70;0.60;;;29.90;49.20;;;;;;4918318;29;20473;-78
2022/09/05 11:34:46;;;;;;;0.70;0.50;;;30.10;48.20;;;;;;4919148;29;20452;-77
2022/09/05 11:37:25;;;;;;;0.70;0.60;;;30.30;48.50;;;;;;4919084;29;20484;-77
2022/09/05 11:40:23;;;;;;;0.70;0.60;;;30.30;47.80;;;;;;4918848;29;20508;-76
2022/09/05 11:43:02;;;;;;;0.70;0.60;;;30.20;46.90;;;;;;4918909;29;20437;-77
2022/09/05 11:45:49;;;;;;;0.70;0.60;;;29.80;47.40;;;;;;4918892;29;20488;-77
2022/09/05 11:48:31;;;;;;;0.70;0.50;;;30.00;48.90;;;;;;4918749;29;20440;-77
2022/09/05 11:51:25;;;;;;;0.80;0.60;;;29.60;46.50;;;;;;4918394;29;20873;-77
2022/09/05 11:54:34;;;;;;;0.70;0.57;;;29.60;47.80;;;;;;4918575;29;20480;-76
2022/09/05 11:57:31;;;;;;;0.70;0.50;;;29.80;47.90;;;;;;4889666;29;20453;-77
2022/09/05 12:00:09;;;;;;;0.70;0.70;;;30.00;48.00;;;;;;4919027;29;20963;-78
2022/09/05 12:03:04;;;;;;;0.70;0.60;;;29.80;48.00;;;;;;4918141;29;20484;-77
2022/09/05 12:06:10;;;;;;;0.70;0.60;;;29.60;46.60;;;;;;4919120;29;20477;-78
2022/09/05 12:08:40;;;;;;;0.70;0.60;;;29.80;47.30;;;;;;4918425;29;20533;-78
2022/09/05 12:11:17;;;;;;;0.70;0.60;;;30.00;47.40;;;;;;4918448;29;20477;-77
2022/09/05 12:13:47;;;;;;;0.80;0.60;;;29.80;45.70;;;;;;4918299;29;20504;-77
2022/09/05 12:16:44;;;;;;;1.50;0.70;;;29.60;46.80;;;;;;4918367;29;20460;-77
2022/09/05 12:19:33;;;;;;;0.90;0.60;;;29.00;47.50;;;;;;4917258;29;20465;-78
2022/09/05 12:22:24;;;;;;;0.70;0.60;;;29.00;46.20;;;;;;4919104;29;20476;-77
2022/09/05 12:25:11;;;;;;;0.73;0.57;;;28.90;47.10;;;;;;4922143;29;20454;-79
2022/09/05 12:27:41;;;;;;;1.00;0.60;;;29.10;46.90;;;;;;4920715;29;20441;-78
2022/09/05 12:30:12;;;;;;;1.30;0.50;;;29.20;48.20;;;;;;4922104;29;20524;-78
2022/09/05 12:32:49;;;;;;;0.70;0.50;;;29.20;46.60;;;;;;4921181;29;20488;-78
2022/09/05 12:35:24;;;;;;;0.73;0.60;;;29.00;46.90;;;;;;4921375;29;20448;-78
2022/09/05 12:37:56;;;;;;;0.70;0.60;;;29.00;47.30;;;;;;4922179;29;20436;-79
2022/09/05 12:40:29;;;;;;;0.70;0.60;;;28.80;47.30;;;;;;4922016;29;20813;-77
2022/09/05 12:42:59;;;;;;;0.70;0.60;;;28.90;48.50;;;;;;4921612;29;20433;-78
2022/09/05 12:45:39;;;;;;;0.70;0.60;;;29.10;48.90;;;;;;4922181;29;20995;-78
2022/09/05 12:48:13;;;;;;;0.70;0.50;;;29.30;49.00;;;;;;4922174;29;20465;-77
2022/09/05 12:50:46;;;;;;;0.70;0.60;;;29.30;47.00;;;;;;4922831;29;20440;-79
2022/09/05 12:53:17;;;;;;;0.70;0.50;;;29.50;47.90;;;;;;4923468;29;20484;-78
2022/09/05 12:55:51;;;;;;;0.70;0.50;;;29.70;47.50;;;;;;4922401;29;20441;-78
2022/09/05 12:58:23;;;;;;;0.77;0.60;;;29.70;46.90;;;;;;4921391;29;20906;-78
2022/09/05 13:00:51;;;;;;;0.70;0.60;;;29.80;47.70;;;;;;4924209;29;20480;-77
2022/09/05 13:03:23;;;;;;;0.70;0.60;;;30.00;48.30;;;;;;4925677;29;20441;-77
2022/09/05 13:05:58;;;;;;;0.70;0.60;;;30.30;46.50;;;;;;4924577;29;20943;-78
2022/09/05 13:08:35;;;;;;;0.80;0.63;;;30.50;45.70;;;;;;4927507;29;20444;-79
2022/09/05 13:11:07;;;;;;;0.70;0.60;;;30.60;45.90;;;;;;4926454;29;20477;-79
2022/09/05 13:13:46;;;;;;;0.70;0.60;;;30.80;46.00;;;;;;4925876;29;20873;-77
2022/09/05 13:16:19;;;;;;;0.73;0.57;;;31.20;44.20;;;;;;4925664;29;20469;-76
2022/09/05 13:19:06;;;;;;;0.70;0.60;;;31.10;44.30;;;;;;4923173;29;20957;-78
2022/09/05 13:21:39;;;;;;;0.70;0.53;;;31.10;43.90;;;;;;4924633;29;20473;-79
2022/09/05 13:24:10;;;;;;;0.70;0.50;;;31.20;44.20;;;;;;4925858;29;20433;-81
2022/09/05 13:26:43;;;;;;;0.70;0.60;;;31.20;43.00;;;;;;4924594;29;20437;-76
2022/09/05 13:29:17;;;;;;;0.70;0.60;;;31.10;43.60;;;;;;4926080;29;20409;-76
2022/09/05 13:32:03;;;;;;;0.70;0.57;;;31.00;44.20;;;;;;4928040;29;20532;-79
2022/09/05 13:34:35;;;;;;;0.70;0.50;;;31.10;44.10;;;;;;4928705;29;20448;-78
2022/09/05 13:37:06;;;;;;;0.70;0.50;;;31.20;43.40;;;;;;4927677;29;20893;-78
2022/09/05 13:39:46;;;;;;;0.70;0.50;;;31.30;44.70;;;;;;4927471;29;20448;-78
2022/09/05 13:42:18;;;;;;;0.70;0.60;;;31.10;44.70;;;;;;4927853;29;20480;-78
2022/09/05 13:44:47;;;;;;;0.70;0.60;;;31.30;45.20;;;;;;4927633;29;20519;-78
2022/09/05 13:47:26;;;;;;;0.70;0.60;;;31.60;44.30;;;;;;4926099;29;20456;-77
2022/09/05 13:50:05;;;;;;;0.70;0.53;;;31.70;44.40;;;;;;4925913;29;20459;-79
2022/09/05 13:52:36;;;;;;;0.70;0.50;;;32.00;43.50;;;;;;4925279;29;20488;-78
2022/09/05 13:55:20;;;;;;;0.70;0.50;;;32.40;43.30;;;;;;4925036;29;20552;-78
2022/09/05 13:57:54;;;;;;;0.70;0.60;;;32.60;42.40;;;;;;4921175;29;20441;-78
2022/09/05 14:01:10;;;;;;;0.70;0.60;;;32.60;42.60;;;;;;4920606;29;20487;-77
2022/09/05 14:04:17;;;;;;;0.70;0.60;;;32.50;43.60;;;;;;4920858;29;20429;-76
2022/09/05 14:07:20;;;;;;;0.70;0.50;;;32.30;42.80;;;;;;4920526;29;20432;-76
2022/09/05 14:10:21;;;;;;;0.70;0.50;;;32.20;44.00;;;;;;4920545;29;20440;-77
2022/09/05 14:12:58;;;;;;;0.70;0.60;;;32.60;42.90;;;;;;4921087;29;20539;-80
2022/09/05 14:15:37;;;;;;;0.70;0.60;;;32.80;41.60;;;;;;4923615;29;20492;-78
2022/09/05 14:18:15;;;;;;;0.70;0.50;;;32.40;43.10;;;;;;4920519;29;20876;-78
2022/09/05 14:23:42;;;;;;;0.70;0.60;;;32.60;43.10;;;;;;4920403;29;20400;-78
2022/09/05 14:26:15;;;;;;;0.70;0.60;;;32.60;42.20;;;;;;4920334;29;20910;-78
2022/09/05 14:28:51;;;;;;;0.70;0.60;;;32.40;42.10;;;;;;4919932;29;20856;-78
2022/09/05 14:31:25;;;;;;;0.70;0.50;;;32.40;42.90;;;;;;4920479;29;20512;-77
2022/09/05 14:34:14;;;;;;;0.70;0.60;;;32.70;42.40;;;;;;4920127;29;20568;-77
2022/09/05 14:36:53;;;;;;;0.90;0.50;;;33.00;41.90;;;;;;4920154;29;20441;-74
2022/09/05 14:39:38;;;;;;;0.70;0.50;;;33.40;40.70;;;;;;4920158;29;20440;-75
2022/09/05 14:42:45;;;;;;;0.70;0.50;;;34.10;39.90;;;;;;4919965;29;20468;-74
2022/09/05 14:45:30;;;;;;;1.50;0.60;;;35.40;38.10;;;;;;4920076;29;20488;-75
2022/09/05 14:48:29;;;;;;;0.70;0.60;;;36.70;37.40;;;;;;4919789;29;20527;-75
2022/09/05 14:51:11;;;;;;;0.70;0.50;;;37.90;36.00;;;;;;4920163;29;20989;-75
2022/09/05 14:53:59;;;;;;;0.70;0.50;;;38.60;34.30;;;;;;4919569;29;20479;-73
2022/09/05 14:56:32;;;;;;;0.70;0.60;;;37.90;35.10;;;;;;4919482;29;20844;-74
2022/09/05 14:59:16;;;;;;;0.70;0.60;;;37.30;35.90;;;;;;4919931;29;20444;-74
2022/09/05 15:02:04;;;;;;;0.70;0.50;;;36.70;36.50;;;;;;4919587;29;20875;-74
2022/09/05 15:04:39;;;;;;;0.70;0.60;;;36.80;36.20;;;;;;4919978;29;20433;-74
2022/09/05 15:07:13;;;;;;;0.70;0.60;;;36.40;36.70;;;;;;4919054;29;20467;-74
2022/09/05 15:09:40;;;;;;;0.70;0.50;;;36.60;36.70;;;;;;4920101;29;20547;-74
2022/09/05 15:12:16;;;;;;;0.70;0.53;;;36.90;36.10;;;;;;4919903;29;20884;-77
2022/09/05 15:15:09;;;;;;;0.70;0.60;;;35.80;37.00;;;;;;4919796;29;20848;-78
2022/09/05 15:17:39;;;;;;;0.80;0.50;;;35.30;38.40;;;;;;4921971;29;20452;-76
2022/09/05 15:20:08;;;;;;;0.70;0.60;;;35.10;38.00;;;;;;4920195;29;20508;-77
2022/09/05 15:22:37;;;;;;;0.80;0.60;;;35.30;37.70;;;;;;4919760;29;20483;-77
2022/09/05 15:25:17;;;;;;;0.70;0.50;;;35.40;37.90;;;;;;4919620;29;20945;-77
2022/09/05 15:27:44;;;;;;;0.80;0.67;;;35.00;38.10;;;;;;4919645;29;20441;-77
2022/09/05 15:30:20;;;;;;;0.70;0.53;;;34.10;39.10;;;;;;4919725;29;20461;-77
2022/09/05 15:32:48;;;;;;;0.70;0.60;;;33.20;40.50;;;;;;4919489;29;20476;-77
2022/09/05 15:35:18;;;;;;;0.70;0.50;;;33.00;41.00;;;;;;4919721;29;20524;-78
2022/09/05 15:37:48;;;;;;;1.03;0.70;;;32.80;41.90;;;;;;4918781;29;20556;-78
2022/09/05 15:40:17;;;;;;;0.70;0.60;;;32.30;42.40;;;;;;4918878;29;20448;-77
2022/09/05 15:42:49;;;;;;;0.70;0.63;;;32.00;42.60;;;;;;4918720;29;20469;-77
2022/09/05 15:45:22;;;;;;;0.80;0.60;;;31.50;43.20;;;;;;4918805;29;20437;-78
2022/09/05 15:48:07;;;;;;;0.77;0.63;;;31.10;43.80;;;;;;4918630;29;21001;-78
2022/09/05 15:50:40;;;;;;;0.70;0.60;;;31.00;43.80;;;;;;4918654;29;20437;-78
2022/09/05 15:53:12;;;;;;;0.90;0.77;;;30.80;45.50;;;;;;4918399;29;20927;-78
2022/09/05 15:55:47;;;;;;;0.70;0.60;;;30.50;45.80;;;;;;4918744;29;20441;-78
2022/09/05 15:58:15;;;;;;;0.70;0.60;;;30.30;47.40;;;;;;4918617;29;20441;-78
2022/09/05 16:00:45;;;;;;;0.70;0.60;;;30.30;47.20;;;;;;4918069;29;20945;-78
2022/09/05 16:03:22;;;;;;;0.80;0.60;;;30.20;46.80;;;;;;4918393;29;20445;-78
2022/09/05 16:05:58;;;;;;;0.70;0.60;;;30.20;47.20;;;;;;4918473;29;20445;-78
2022/09/05 16:08:30;;;;;;;1.33;0.70;;;30.30;48.50;;;;;;4918408;29;20457;-77
2022/09/05 16:11:26;;;;;;;0.70;0.60;;;30.40;48.30;;;;;;4918542;29;20477;-78
2022/09/05 16:13:57;;;;;;;0.70;0.60;;;30.40;48.50;;;;;;4918285;29;20508;-77
2022/09/05 16:16:30;;;;;;;0.80;0.60;;;30.40;48.70;;;;;;4918312;29;20481;-78
2022/09/05 16:19:02;;;;;;;0.80;0.60;;;30.40;47.10;;;;;;4918131;29;20529;-75
2022/09/05 16:21:30;;;;;;;0.80;0.60;;;30.40;47.50;;;;;;4919375;29;20473;-78
2022/09/05 16:23:59;;;;;;;0.70;0.60;;;30.40;49.00;;;;;;4918035;29;20449;-78
2022/09/05 16:26:30;;;;;;;0.70;0.60;;;30.40;48.40;;;;;;4918318;29;20453;-78
2022/09/05 16:29:00;;;;;;;0.70;0.60;;;30.30;48.00;;;;;;4923547;29;20445;-78
2022/09/05 16:31:35;;;;;;;0.80;0.70;;;30.20;47.60;;;;;;4925727;29;20524;-77
2022/09/05 16:34:07;;;;;;;0.80;0.73;;;30.20;47.90;;;;;;4918183;29;20473;-75
2022/09/05 16:36:48;;;;;;;0.70;0.70;;;30.20;48.30;;;;;;4917945;29;20437;-76
2022/09/05 16:39:20;;;;;;;0.80;0.70;;;30.20;48.20;;;;;;4918663;29;20527;-76
2022/09/05 16:41:51;;;;;;;0.70;0.60;;;30.20;47.80;;;;;;4917901;29;20530;-76
2022/09/05 16:44:28;;;;;;;0.70;0.60;;;30.20;47.90;;;;;;4917996;29;20448;-75
2022/09/05 16:47:08;;;;;;;0.80;0.60;;;30.20;47.80;;;;;;4917928;29;20433;-77
2022/09/05 16:49:39;;;;;;;0.80;0.60;;;30.20;47.70;;;;;;4917797;29;20441;-76
2022/09/05 16:52:07;;;;;;;0.70;0.60;;;30.20;48.30;;;;;;4917580;29;20468;-77
2022/09/05 16:54:41;;;;;;;0.70;0.63;;;30.20;48.50;;;;;;4917548;29;21004;-76
2022/09/05 16:57:11;;;;;;;1.17;0.90;;;30.20;48.70;;;;;;4917751;29;20506;-75